Skip Navigation Links
NOAA logo - Click to go to the NOAA homepage
NOAA's National Weather Service
Alaska Aviation Weather Unit
  NWS logo - Click to go to the NWS homepage
Left Navbar Graphic     23 AKDT = 07 GMT

   
NOAA is celebrating 200 years of science, service, and stewardship. Visit the NOAA 200th celebration Web site to learn more.
USA.gov is the U.S. Government's official Web portal to all Federal, state and local government Web resources and services.
Facebook
NWS on Facebook

AAWU Home :: Display TAF Add Bookmark
TAF PAOT 240540Z 2406/2506 04007KT P6SM SCT250=
METAR PAOT 240153Z 01008KT 10SM FEW200 03/M05 A2979=

METAR PAOT 240253Z 02006KT 10SM CLR 04/M06 A2977=

METAR PAOT 240353Z 03006KT 10SM CLR 03/M04 A2976=

METAR PAOT 240453Z 04003KT 10SM CLR 02/M04 A2975=

METAR PAOT 240553Z 04005KT 10SM CLR 02/M04 A2975=

METAR PAOT 240653Z 03003KT 10SM CLR 00/M04 A2975=


NOAA's National Weather Service
Alaska Aviation Weather Unit
6930 Sand Lake Road
Anchorage, AK 99502-1845
Disclaimer
Credits
Glossary
Privacy Policy
About Us
Career Opportunities
Contact AAWU Internet Services Site last modified: April, 17th 2012